• Join FlightAware (Why Join?)
  • Login
  • US Flag 
02:47AM EST


 

Airport Tracker/Info


-or-


 

Live Flight TrackerFlight Track Log ✈ SWA385 ✈ 14-Jul-2013 ✈ KMDW - KSMF

Flight Track Log - Related Links

Times and Time Zones

All times are in EDT time to prevent confusion due to time zone crossing. See the SWA385 flight status page for this flight to view local times or setup timezone preferences in your user account.

Time Position Orientation Groundspeed Altitude Reporting Facility
EDT Latitude Longitude Course Direction KTS MPH feet Rate Location/Type
07:16PM 41.8000 -87.7333 285° West 161 185 1,800  Level Chicago TRACON
07:17PM 41.8333 -87.8000 304° West 244 281 3,000 1,380 Climbing Chicago TRACON
07:18PM 41.8175 -87.8342 238° Southwest 232 267 3,900 2,040 Climbing Chicago Center
07:19PM 41.8217 -87.9206 274° West 248 285 6,400 2,700 Climbing Chicago Center
07:20PM 41.8711 -88.0028 309° West 286 329 9,500 3,180 Climbing Chicago Center
07:21PM 41.9119 -88.1261 294° West 305 351 13,000 2,460 Climbing Chicago Center
07:22PM 41.8516 -88.5078 285° West  Level FlightAware Approximate
07:22PM 41.9511 -88.2311 297° West 322 371 14,700  Level Chicago Center
07:23PM 42.0036 -88.3514 300° West 369 425 16,800 1,920 Climbing Chicago Center
07:24PM 42.0594 -88.4778 301° West 391 450 18,700 2,040 Climbing Chicago Center
07:25PM 42.0994 -88.6489 288° West 412 474 21,100 2,040 Climbing Chicago Center
07:26PM 42.1003 -88.8022 270° West 414 476 23,000 1,800 Climbing Chicago Center
07:27PM 42.1006 -88.9719 270° West 425 489 24,900 1,740 Climbing Chicago Center
07:28PM 42.1014 -89.1367 270° West 436 502 26,700 1,560 Climbing Chicago Center
07:29PM 42.1014 -89.3078 270° West 453 521 28,200 1,440 Climbing Chicago Center
07:30PM 42.1033 -89.4789 271° West 455 524 29,700 1,560 Climbing Chicago Center
07:31PM 42.1075 -89.6533 272° West 463 533 31,500 1,500 Climbing Chicago Center
07:32PM 42.1108 -89.8269 272° West 464 534 32,900 1,200 Climbing Chicago Center
07:33PM 42.1119 -90.0181 271° West 462 532 34,000 480 Climbing Chicago Center
07:34PM 42.1247 -90.1908 276° West 467 537 34,000  Level Chicago Center
07:36PM 42.1489 -90.3600 281° West 464 534 34,100 600 Climbing Chicago Center
07:37PM 42.1711 -90.5306 280° West 466 536 35,300 900 Climbing Chicago Center
07:38PM 42.2000 -90.7378 281° West 472 543 36,000 300 Climbing Chicago Center
07:39PM 42.2222 -90.9136 280° West 477 549 36,000  Level Chicago Center
07:40PM 42.2444 -91.0892 280° West 478 550 36,000  Level Chicago Center
07:41PM 42.2667 -91.2625 280° West 475 547 36,000  Level Chicago Center
07:42PM 42.2883 -91.4367 280° West 471 542 36,000  Level Chicago Center
07:43PM 42.3150 -91.6467 280° West 473 544 36,000  Level Chicago Center
07:44PM 42.3356 -91.8194 279° West 469 540 36,000  Level Chicago Center
07:45PM 42.3572 -91.9928 280° West 469 540 36,000  Level Chicago Center
07:46PM 42.3775 -92.1653 279° West 467 537 36,000  Level Chicago Center
07:47PM 42.3986 -92.3386 279° West 469 540 36,000  Level Chicago Center
07:48PM 42.4181 -92.5100 279° West 466 536 36,000  Level Chicago Center
07:49PM 42.4419 -92.7181 279° West 468 539 36,000  Level Chicago Center
07:50PM 42.4619 -92.8911 279° West 469 540 36,000  Level Chicago Center
07:51PM 42.4806 -93.0664 278° West 471 542 36,000  Level Chicago Center
07:52PM 42.4997 -93.2422 278° West 476 548 36,000  Level Minneapolis Center
07:53PM 42.5189 -93.4150 279° West 470 541 36,000  Level Minneapolis Center
07:54PM 42.5383 -93.5881 279° West 469 540 36,000  Level Minneapolis Center
07:55PM 42.5628 -93.8297 278° West 466 536 36,000  Level Minneapolis Center
07:56PM 42.5819 -94.0008 279° West 464 534 36,000  Level Minneapolis Center
07:57PM 42.6025 -94.1739 279° West 467 537 36,000  Level Minneapolis Center
07:58PM 42.6133 -94.3458 275° West 465 535 36,000  Level Minneapolis Center
07:59PM 42.6083 -94.5211 268° West 469 540 36,000  Level Minneapolis Center
08:00PM 42.6050 -94.7378 269° West 467 537 36,000  Level Minneapolis Center
08:02PM 42.6031 -94.9117 269° West 466 536 36,000  Level Minneapolis Center
08:03PM 42.5994 -95.0861 268° West 465 535 36,000  Level Minneapolis Center
08:04PM 42.5956 -95.2611 268° West 466 536 36,000  Level Minneapolis Center
08:05PM 42.5919 -95.4347 268° West 464 534 36,000  Level Minneapolis Center
08:06PM 42.5869 -95.6100 268° West 465 535 36,000  Level Minneapolis Center
08:07PM 42.5822 -95.8169 268° West 460 529 36,000  Level Minneapolis Center
08:08PM 42.5761 -96.0250 268° West 462 532 36,000  Level Minneapolis Center
08:09PM 42.5714 -96.2039 268° West 468 539 36,000  Level Minneapolis Center
08:10PM 42.5653 -96.4097 268° West 463 533 36,000  Level Minneapolis Center
08:11PM 42.5597 -96.5822 268° West 461 531 36,000  Level Minneapolis Center
08:12PM 42.5531 -96.7561 267° West 463 533 36,000  Level Minneapolis Center
08:13PM 42.5458 -96.9633 267° West 461 531 36,000  Level Minneapolis Center
08:14PM 42.5397 -97.1347 267° West 459 528 36,000  Level Minneapolis Center
08:15PM 42.5325 -97.3061 267° West 458 527 36,000  Level Minneapolis Center
08:16PM 42.5258 -97.4778 267° West 457 526 36,000  Level Minneapolis Center
08:17PM 42.5194 -97.6481 267° West 455 524 36,000  Level Minneapolis Center
08:18PM 42.5117 -97.8197 267° West 457 526 36,000  Level Minneapolis Center
08:19PM 42.5042 -97.9925 267° West 452 520 36,000  Level Minneapolis Center
08:21PM 42.4661 -98.1900 255° West 451 519 36,000  Level Minneapolis Center
08:22PM 42.4308 -98.3547 254° West 456 525 36,000  Level Minneapolis Center
08:23PM 42.3981 -98.5197 255° West 456 525 36,000  Level Minneapolis Center
08:24PM 42.3708 -98.6511 254° West 455 524 36,000  Level Minneapolis Center
08:24PM 42.3439 -98.7833 255° West 455 524 36,000  Level Denver Center
08:25PM 42.3125 -98.9492 256° West 457 526 36,000  Level Denver Center
08:26PM 42.2800 -99.1119 255° West 452 520 36,000  Level Denver Center
08:27PM 42.2475 -99.2778 255° West 457 526 36,000  Level Denver Center
08:28PM 42.1825 -99.4617 245° Southwest 455 524 36,000  Level Denver Center
08:29PM 42.1217 -99.6117 241° Southwest 457 526 36,000  Level Denver Center
08:30PM 42.0558 -99.7600 239° Southwest 457 526 36,000  Level Denver Center
08:31PM 41.9928 -99.9011 239° Southwest 458 527 36,000  Level Denver Center
08:32PM 41.9297 -100.0689 243° Southwest 454 522 36,000  Level Denver Center
08:33PM 41.9186 -100.2306 265° West 456 525 36,000  Level Denver Center
08:35PM 41.9133 -100.4189 268° West 453 521 36,000  Level Denver Center
08:36PM 41.9078 -100.5797 267° West 453 521 36,000  Level Denver Center
08:37PM 41.9006 -100.7661 267° West 451 519 36,000  Level Denver Center
08:38PM 41.8947 -100.9253 267° West 449 517 36,000  Level Denver Center
08:39PM 41.8869 -101.1108 267° West 449 517 36,000  Level Denver Center
08:40PM 41.8792 -101.2714 266° West 453 521 36,000  Level Denver Center
08:41PM 41.8708 -101.4600 267° West 455 524 36,000  Level Denver Center
08:42PM 41.8631 -101.6206 266° West 454 522 36,000  Level Denver Center
08:43PM 41.8533 -101.8072 266° West 451 519 36,000  Level Denver Center
08:44PM 41.8458 -101.9650 266° West 447 514 36,000  Level Denver Center
08:45PM 41.8394 -102.1517 267° West 451 519 36,000  Level Denver Center
08:46PM 41.8417 -102.3147 271° West 445 512 36,000  Level Denver Center
08:47PM 41.8533 -102.4731 276° West 449 517 36,000  Level Denver Center
08:48PM 41.9239 -102.6358 300° West 455 524 36,000  Level Denver Center
08:49PM 41.9858 -102.7747 301° West 454 522 36,000  Level Denver Center
08:50PM 42.0561 -102.9367 300° West 450 518 36,000 300 Level Denver Center
08:51PM 42.0731 -103.0911 278° West 442 509 36,700 960 Climbing Denver Center
08:52PM 42.0700 -103.2739 269° West 439 505 38,000 600 Climbing Denver Center
08:53PM 42.0672 -103.4292 269° West 435 501 38,000  Level Denver Center
08:54PM 42.0633 -103.6103 268° West 432 497 38,000  Level Denver Center
08:55PM 42.0586 -103.7656 268° West 436 502 38,000  Level Denver Center
08:56PM 42.0550 -103.9203 268° West 433 498 38,000  Level Denver Center
08:57PM 42.0497 -104.1011 268° West 434 499 38,000  Level Denver Center
08:58PM 42.0456 -104.2544 268° West 430 495 38,000  Level Denver Center
08:59PM 42.0406 -104.4333 268° West 426 490 38,000  Level Denver Center
09:00PM 42.0356 -104.5864 268° West 425 489 38,000  Level Denver Center
09:01PM 42.0292 -104.7647 267° West 426 490 38,000  Level Denver Center
09:02PM 42.0250 -104.9181 268° West 427 491 38,000  Level Denver Center
09:03PM 42.0192 -105.0708 267° West 426 490 38,000  Level Denver Center
09:04PM 42.0128 -105.2483 267° West 425 489 38,000  Level Denver Center
09:05PM 42.0072 -105.4031 267° West 430 495 38,000  Level Denver Center
09:06PM 41.9994 -105.5800 267° West 425 489 38,000  Level Denver Center
09:08PM 41.9936 -105.7325 267° West 426 490 38,000  Level Denver Center
09:09PM 41.9853 -105.9069 266° West 421 484 38,000  Level Denver Center
09:10PM 41.9803 -106.0603 268° West 426 490 38,000  Level Denver Center
09:11PM 41.9725 -106.2119 266° West 426 490 38,000  Level Denver Center
09:12PM 41.9633 -106.3886 266° West 424 488 38,000  Level Denver Center
09:13PM 41.9575 -106.5492 267° West 429 494 38,000  Level Denver Center
09:14PM 41.9497 -106.7017 266° West 429 494 38,000  Level Denver Center
09:15PM 41.9397 -106.8794 266° West 428 493 38,000  Level Denver Center
09:16PM 41.9319 -107.0314 266° West 427 491 38,000  Level Denver Center
09:17PM 41.9231 -107.2081 266° West 427 491 38,000  Level Denver Center
09:18PM 41.9147 -107.3589 266° West 425 489 38,000  Level Denver Center
09:19PM 41.9044 -107.5344 266° West 425 489 38,000  Level Denver Center
09:20PM 41.8953 -107.6847 265° West 424 488 38,000  Level Denver Center
09:21PM 41.8856 -107.8608 266° West 423 487 38,000  Level Denver Center
09:22PM 41.8753 -108.0111 265° West 424 488 38,000  Level Denver Center
09:23PM 41.8661 -108.1611 265° West 424 488 38,000  Level Denver Center
09:24PM 41.8553 -108.3378 265° West 426 490 38,000  Level Denver Center
09:25PM 41.8450 -108.4886 265° West 427 491 38,000  Level Denver Center
09:26PM 41.8278 -108.7411 265° West 427 491 38,000  Level Salt Lake Center
09:28PM 41.8178 -108.8900 265° West 424 488 38,000  Level Salt Lake Center
09:29PM 41.8058 -109.0625 265° West 420 483 38,000  Level Salt Lake Center
09:30PM 41.7961 -109.2081 265° West 415 478 38,000  Level Salt Lake Center
09:31PM 41.7853 -109.3533 264° West 414 476 38,000  Level Salt Lake Center
09:32PM 41.7717 -109.5253 264° West 417 480 38,000  Level Salt Lake Center
09:33PM 41.7603 -109.6719 264° West 417 480 38,000  Level Salt Lake Center
09:34PM 41.7469 -109.8439 264° West 417 480 38,000  Level Salt Lake Center
09:35PM 41.7350 -109.9922 264° West 419 482 38,000  Level Salt Lake Center
09:36PM 41.7214 -110.1617 264° West 414 476 38,000  Level Salt Lake Center
09:37PM 41.7097 -110.3064 264° West 411 473 38,000  Level Salt Lake Center
09:38PM 41.6956 -110.4742 264° West 407 468 38,000  Level Salt Lake Center
09:39PM 41.6831 -110.6214 264° West 415 478 38,000  Level Salt Lake Center
09:40PM 41.6694 -110.7922 264° West 415 478 38,000  Level Salt Lake Center
09:41PM 41.6550 -110.9489 263° West 415 478 38,000  Level Salt Lake Center
09:42PM 41.6406 -111.1019 263° West 417 480 38,000  Level Salt Lake Center
09:43PM 41.6267 -111.2558 263° West 420 483 38,000  Level Salt Lake Center
09:44PM 41.6128 -111.4114 263° West 423 487 38,000  Level Salt Lake Center
09:45PM 41.5978 -111.5647 263° West 420 483 38,000  Level Salt Lake Center
09:46PM 41.5811 -111.7489 263° West 421 484 38,000  Level Salt Lake Center
09:47PM 41.5672 -111.9008 263° West 417 480 38,000  Level Salt Lake Center
09:48PM 41.5522 -112.0514 262° West 414 476 38,000  Level Salt Lake Center
09:49PM 41.5375 -112.1997 262° West 407 468 38,000  Level Salt Lake Center
09:50PM 41.5228 -112.3489 263° West 408 470 38,000  Level Salt Lake Center
09:51PM 41.5083 -112.4978 263° West 408 470 38,000  Level Salt Lake Center
09:52PM 41.4886 -112.6778 262° West 411 473 38,000  Level Salt Lake Center
09:53PM 41.4736 -112.8300 263° West 415 478 38,000  Level Salt Lake Center
09:54PM 41.4575 -112.9828 262° West 417 480 38,000  Level Salt Lake Center
09:55PM 41.4397 -113.1381 261° West 423 487 38,000  Level Salt Lake Center
09:56PM 41.4228 -113.2922 262° West 423 487 38,000  Level Salt Lake Center
09:57PM 41.4064 -113.4458 262° West 420 483 38,000  Level Salt Lake Center
09:58PM 41.3869 -113.6261 262° West 412 474 38,000  Level Salt Lake Center
09:59PM 41.3697 -113.7758 261° West 410 472 38,000  Level Salt Lake Center
10:00PM 41.3439 -113.9222 257° West 409 471 38,000  Level Salt Lake Center
10:02PM 41.2992 -114.0631 247° West 410 472 38,000  Level Salt Lake Center
10:03PM 41.2583 -114.2031 249° West 409 471 38,000  Level Salt Lake Center
10:04PM 41.2178 -114.3433 249° West 409 471 38,000  Level Salt Lake Center
10:05PM 41.1736 -114.4828 247° West 410 472 38,000  Level Salt Lake Center
10:06PM 41.1214 -114.6531 248° West 416 479 38,000  Level Salt Lake Center
10:07PM 41.0764 -114.7964 247° West 421 484 38,000  Level Salt Lake Center
10:08PM 41.0297 -114.9422 247° West 422 486 38,000  Level Salt Lake Center
10:09PM 40.9836 -115.0806 246° West 427 491 38,000  Level Salt Lake Center
10:10PM 40.9347 -115.2417 248° West 424 488 38,000  Level Salt Lake Center
10:11PM 40.8936 -115.3775 248° West 418 481 38,000  Level Salt Lake Center
10:12PM 40.8428 -115.5333 247° West 414 476 38,000  Level Salt Lake Center
10:13PM 40.7986 -115.6658 246° West 413 475 38,000  Level Salt Lake Center
10:14PM 40.7544 -115.7967 246° West 409 471 38,000  Level Salt Lake Center
10:15PM 40.7053 -115.9483 247° West 403 464 38,000  Level Salt Lake Center
10:16PM 40.6656 -116.0797 248° West 402 463 38,000  Level Salt Lake Center
10:17PM 40.6133 -116.2314 246° West 406 467 38,000  Level Salt Lake Center
10:18PM 40.5703 -116.3611 246° West 405 466 38,000  Level Salt Lake Center
10:19PM 40.5214 -116.5117 247° West 402 463 38,000  Level Salt Lake Center
10:20PM 40.4783 -116.6403 246° West 402 463 38,000  Level Salt Lake Center
10:21PM 40.4322 -116.7758 246° West 403 464 38,000  Level Salt Lake Center
10:22PM 40.3856 -116.9106 246° West 406 467 38,000  Level Salt Lake Center
10:23PM 40.3350 -117.0644 247° West 413 475 38,000  Level Salt Lake Center
10:24PM 40.2911 -117.1906 246° West 402 463 38,000  Level Salt Lake Center
10:25PM 40.2397 -117.3411 246° West 405 466 38,000  Level Salt Lake Center
10:26PM 40.1947 -117.4708 246° West 409 471 38,000  Level Salt Lake Center
10:27PM 40.1492 -117.6017 246° West 411 473 38,000  Level Salt Lake Center
10:28PM 40.0969 -117.7539 246° West 411 473 38,000  Level Salt Lake Center
10:29PM 40.0511 -117.8853 246° West 411 473 38,000  Level Salt Lake Center
10:30PM 40.0033 -118.0186 245° Southwest 408 470 38,000  Level Salt Lake Center
10:31PM 39.9564 -118.1522 245° Southwest 406 467 38,000  Level Salt Lake Center
10:32PM 39.9003 -118.3117 245° Southwest 405 466 38,000  Level Salt Lake Center
10:33PM 39.8539 -118.4425 245° Southwest 403 464 38,000 -240 Level Salt Lake Center
10:34PM 39.8061 -118.5756 245° Southwest 407 468 37,600 -660 Descending Salt Lake Center
10:35PM 39.7589 -118.7078 245° Southwest 408 470 36,700 -960 Descending Salt Lake Center
10:36PM 39.7103 -118.8403 245° Southwest 410 472 35,700 -840 Descending Salt Lake Center
10:37PM 39.6636 -118.9711 245° Southwest 405 466 35,000 -300 Descending Salt Lake Center
10:39PM 39.5872 -119.1783 244° Southwest 402 463 35,000 -420 Level Oakland Center
10:40PM 39.5394 -119.3092 245° Southwest 404 465 34,000 -960 Descending Oakland Center
10:41PM 39.4903 -119.4414 244° Southwest 408 470 33,100 -960 Descending Oakland Center
10:42PM 39.4411 -119.5772 245° Southwest 416 479 32,100 -1,320 Descending Oakland Center
10:43PM 39.3894 -119.7125 244° Southwest 420 483 30,400 -1,920 Descending Oakland Center
10:44PM 39.3397 -119.8447 244° Southwest 413 475 28,200 -2,220 Descending Oakland Center
10:45PM 39.2922 -119.9708 244° Southwest 398 458 26,000 -2,160 Descending Oakland Center
10:46PM 39.2458 -120.0939 244° Southwest 385 443 23,800 -2,340 Descending Oakland Center
10:47PM 39.1922 -120.2344 244° Southwest 371 427 21,300 -2,220 Descending Oakland Center
10:48PM 39.1572 -120.3539 249° West 361 415 19,300 -2,040 Descending Oakland Center
10:49PM 39.1281 -120.4728 252° West 352 405 17,200 -1,620 Descending Oakland Center
10:50PM 39.0978 -120.5917 252° West 351 404 16,000 -1,380 Descending Oakland Center
10:51PM 39.0658 -120.7119 251° West 354 407 14,400 -2,100 Descending Oakland Center
10:52PM 39.0350 -120.8364 252° West 363 418 11,800 -2,040 Descending Oakland Center
10:53PM 39.0031 -120.9564 251° West 360 414 10,300 -1,080 Descending Oakland Center
10:54PM 38.9778 -121.0553 252° West 303 349 9,700 -900 Descending Oakland Center
10:55PM 38.9531 -121.1500 251° West 283 326 8,500 -1,320 Descending Oakland Center
10:56PM 38.9333 -121.2167 249° West 271 312 7,700 -1,440 Descending Northern Cal TRACON
10:57PM 38.9167 -121.3000 256° West 270 311 6,400 -1,320 Descending Northern Cal TRACON
10:58PM 38.8833 -121.3833 243° Southwest 262 302 5,200 -780 Descending Northern Cal TRACON
10:59PM 38.8500 -121.4500 237° Southwest 205 236 5,000 -780 Descending Northern Cal TRACON
11:00PM 38.8333 -121.5000 247° West 194 223 3,700 -1,500 Descending Northern Cal TRACON
11:01PM 38.8000 -121.5667 237° Southwest 185 213 2,100 -1,260 Descending Northern Cal TRACON
11:02PM 38.7667 -121.6000 218° Southwest 155 178 1,200 -840 Descending Northern Cal TRACON
11:03PM 38.7333 -121.6000 180° South 131 151 500 -720 Descending Northern Cal TRACON
11:05PM 38.6954 -121.5908 218° Southwest  Level Estimated
11:12PM 38.6954 -121.5908 218° Southwest  Level Estimated